Caputa, South Dakota
Current Conditions -  °F | °C
As of 7:52 PM on Wednesday 22 Oct 2014 (Local Time) from KRAP Reporting Station
Clear Clear  
Wind Chill: 42°   Ceiling: Unl
Heat Index: 44°   Visibility: 10mi
Dew Point: 31°   Wind: 5mph
Humidity: 60%   Direction: 250°WSW
Pressure: 30.02"   Gusts: NA
Location:  44°N, 102.98°W
Report Text: KRAP 230152Z 25004KT 10SM CLR 07/M01 A3002 RMK AO2 SLP172 T00671006
Loading
Personal Weather Stations






























Interactive Weather Map
Tropical Storm Tracking
New forecast layout! Learn more

10-Day Weather Forecast

Advertisements
Track Severe Weather on mobile